sensor_id;sensor_type;location;lat;lon;timestamp;P1;durP1;ratioP1;P2;durP2;ratioP2
43998;SDS011;51319;52.162;5.302;2024-02-26T00:00:41;6.70;;;4.00;;
43998;SDS011;51319;52.162;5.302;2024-02-26T00:03:08;5.00;;;4.35;;
43998;SDS011;51319;52.162;5.302;2024-02-26T00:05:35;5.47;;;3.47;;
43998;SDS011;51319;52.162;5.302;2024-02-26T00:08:02;7.07;;;3.90;;
43998;SDS011;51319;52.162;5.302;2024-02-26T00:10:31;9.30;;;4.20;;
43998;SDS011;51319;52.162;5.302;2024-02-26T00:12:58;5.93;;;3.90;;
43998;SDS011;51319;52.162;5.302;2024-02-26T00:15:25;5.97;;;3.92;;
43998;SDS011;51319;52.162;5.302;2024-02-26T00:17:52;6.57;;;4.30;;
43998;SDS011;51319;52.162;5.302;2024-02-26T00:20:20;12.60;;;4.40;;
43998;SDS011;51319;52.162;5.302;2024-02-26T00:22:47;7.68;;;4.93;;
43998;SDS011;51319;52.162;5.302;2024-02-26T00:25:14;6.45;;;4.43;;
43998;SDS011;51319;52.162;5.302;2024-02-26T00:27:41;9.90;;;5.53;;
43998;SDS011;51319;52.162;5.302;2024-02-26T00:30:10;15.18;;;5.05;;
43998;SDS011;51319;52.162;5.302;2024-02-26T00:32:38;7.20;;;5.45;;
43998;SDS011;51319;52.162;5.302;2024-02-26T00:35:05;8.55;;;5.40;;
43998;SDS011;51319;52.162;5.302;2024-02-26T00:37:33;7.50;;;5.25;;
43998;SDS011;51319;52.162;5.302;2024-02-26T00:40:00;8.23;;;4.65;;
43998;SDS011;51319;52.162;5.302;2024-02-26T00:42:27;8.48;;;5.20;;
43998;SDS011;51319;52.162;5.302;2024-02-26T00:44:54;9.20;;;5.47;;
43998;SDS011;51319;52.162;5.302;2024-02-26T00:47:21;7.35;;;5.38;;
43998;SDS011;51319;52.162;5.302;2024-02-26T00:49:48;7.32;;;5.20;;
43998;SDS011;51319;52.162;5.302;2024-02-26T00:52:15;8.73;;;5.85;;
43998;SDS011;51319;52.162;5.302;2024-02-26T00:54:42;7.85;;;5.38;;
43998;SDS011;51319;52.162;5.302;2024-02-26T00:57:09;8.48;;;6.07;;
43998;SDS011;51319;52.162;5.302;2024-02-26T00:59:36;15.80;;;9.20;;
43998;SDS011;51319;52.162;5.302;2024-02-26T01:02:03;11.73;;;6.63;;
43998;SDS011;51319;52.162;5.302;2024-02-26T01:04:31;8.60;;;6.30;;
43998;SDS011;51319;52.162;5.302;2024-02-26T01:07:00;10.13;;;6.88;;
43998;SDS011;51319;52.162;5.302;2024-02-26T01:09:27;7.50;;;5.90;;
43998;SDS011;51319;52.162;5.302;2024-02-26T01:11:54;10.00;;;6.65;;
43998;SDS011;51319;52.162;5.302;2024-02-26T01:14:21;9.30;;;6.72;;
43998;SDS011;51319;52.162;5.302;2024-02-26T01:16:48;12.90;;;6.40;;
43998;SDS011;51319;52.162;5.302;2024-02-26T01:19:15;10.93;;;7.55;;
43998;SDS011;51319;52.162;5.302;2024-02-26T01:21:42;13.70;;;7.00;;
43998;SDS011;51319;52.162;5.302;2024-02-26T01:24:09;11.05;;;6.82;;
43998;SDS011;51319;52.162;5.302;2024-02-26T01:26:37;9.07;;;6.22;;
43998;SDS011;51319;52.162;5.302;2024-02-26T01:29:04;10.05;;;7.07;;
43998;SDS011;51319;52.162;5.302;2024-02-26T01:31:31;11.48;;;6.95;;
43998;SDS011;51319;52.162;5.302;2024-02-26T01:33:58;7.82;;;6.40;;
43998;SDS011;51319;52.162;5.302;2024-02-26T01:36:25;9.18;;;7.05;;
43998;SDS011;51319;52.162;5.302;2024-02-26T01:38:52;12.48;;;6.38;;
43998;SDS011;51319;52.162;5.302;2024-02-26T01:41:20;8.38;;;6.38;;
43998;SDS011;51319;52.162;5.302;2024-02-26T01:43:46;9.75;;;7.22;;
43998;SDS011;51319;52.162;5.302;2024-02-26T01:46:14;10.00;;;7.18;;
43998;SDS011;51319;52.162;5.302;2024-02-26T01:48:42;10.43;;;6.72;;
43998;SDS011;51319;52.162;5.302;2024-02-26T01:51:10;8.25;;;6.90;;
43998;SDS011;51319;52.162;5.302;2024-02-26T01:53:38;10.65;;;6.78;;
43998;SDS011;51319;52.162;5.302;2024-02-26T01:56:06;11.63;;;6.40;;
43998;SDS011;51319;52.162;5.302;2024-02-26T01:58:34;7.72;;;6.70;;
43998;SDS011;51319;52.162;5.302;2024-02-26T02:01:02;10.63;;;7.32;;
43998;SDS011;51319;52.162;5.302;2024-02-26T02:03:30;10.88;;;7.60;;
43998;SDS011;51319;52.162;5.302;2024-02-26T02:05:57;8.57;;;7.03;;
43998;SDS011;51319;52.162;5.302;2024-02-26T02:08:24;11.95;;;7.70;;
43998;SDS011;51319;52.162;5.302;2024-02-26T02:10:51;10.57;;;7.80;;
43998;SDS011;51319;52.162;5.302;2024-02-26T02:13:19;12.32;;;8.07;;
43998;SDS011;51319;52.162;5.302;2024-02-26T02:15:45;10.57;;;8.82;;
43998;SDS011;51319;52.162;5.302;2024-02-26T02:18:12;10.35;;;6.78;;
43998;SDS011;51319;52.162;5.302;2024-02-26T02:20:39;11.38;;;8.15;;
43998;SDS011;51319;52.162;5.302;2024-02-26T02:23:06;11.50;;;8.68;;
43998;SDS011;51319;52.162;5.302;2024-02-26T02:25:33;11.13;;;8.55;;
43998;SDS011;51319;52.162;5.302;2024-02-26T02:28:00;12.88;;;8.45;;
43998;SDS011;51319;52.162;5.302;2024-02-26T02:30:28;13.15;;;9.50;;
43998;SDS011;51319;52.162;5.302;2024-02-26T02:32:57;12.95;;;8.57;;
43998;SDS011;51319;52.162;5.302;2024-02-26T02:35:25;13.00;;;8.93;;
43998;SDS011;51319;52.162;5.302;2024-02-26T02:37:52;11.25;;;9.40;;
43998;SDS011;51319;52.162;5.302;2024-02-26T02:40:19;13.10;;;8.93;;
43998;SDS011;51319;52.162;5.302;2024-02-26T02:42:47;16.52;;;9.65;;
43998;SDS011;51319;52.162;5.302;2024-02-26T02:45:13;16.80;;;10.07;;
43998;SDS011;51319;52.162;5.302;2024-02-26T02:47:40;13.77;;;8.63;;
43998;SDS011;51319;52.162;5.302;2024-02-26T02:50:07;14.88;;;9.05;;
43998;SDS011;51319;52.162;5.302;2024-02-26T02:52:35;16.10;;;9.40;;
43998;SDS011;51319;52.162;5.302;2024-02-26T02:55:02;15.30;;;9.48;;
43998;SDS011;51319;52.162;5.302;2024-02-26T02:57:29;12.18;;;9.40;;
43998;SDS011;51319;52.162;5.302;2024-02-26T02:59:57;12.43;;;9.07;;
43998;SDS011;51319;52.162;5.302;2024-02-26T03:02:24;13.10;;;9.10;;
43998;SDS011;51319;52.162;5.302;2024-02-26T03:04:51;16.45;;;10.02;;
43998;SDS011;51319;52.162;5.302;2024-02-26T03:07:18;13.48;;;9.35;;
43998;SDS011;51319;52.162;5.302;2024-02-26T03:09:45;16.45;;;10.10;;
43998;SDS011;51319;52.162;5.302;2024-02-26T03:12:12;13.68;;;9.30;;
43998;SDS011;51319;52.162;5.302;2024-02-26T03:14:40;14.07;;;9.73;;
43998;SDS011;51319;52.162;5.302;2024-02-26T03:17:07;14.73;;;10.25;;
43998;SDS011;51319;52.162;5.302;2024-02-26T03:19:34;14.00;;;9.70;;
43998;SDS011;51319;52.162;5.302;2024-02-26T03:22:01;15.07;;;10.52;;
43998;SDS011;51319;52.162;5.302;2024-02-26T03:24:28;21.05;;;11.35;;
43998;SDS011;51319;52.162;5.302;2024-02-26T03:26:55;27.77;;;14.05;;
43998;SDS011;51319;52.162;5.302;2024-02-26T03:29:23;12.75;;;9.57;;
43998;SDS011;51319;52.162;5.302;2024-02-26T03:31:50;27.13;;;14.18;;
43998;SDS011;51319;52.162;5.302;2024-02-26T03:34:17;13.13;;;9.32;;
43998;SDS011;51319;52.162;5.302;2024-02-26T03:36:46;13.38;;;9.55;;
43998;SDS011;51319;52.162;5.302;2024-02-26T03:39:13;12.48;;;9.75;;
43998;SDS011;51319;52.162;5.302;2024-02-26T03:41:40;13.32;;;9.35;;
43998;SDS011;51319;52.162;5.302;2024-02-26T03:44:07;14.30;;;10.45;;
43998;SDS011;51319;52.162;5.302;2024-02-26T03:46:34;14.38;;;10.32;;
43998;SDS011;51319;52.162;5.302;2024-02-26T03:49:01;16.30;;;10.50;;
43998;SDS011;51319;52.162;5.302;2024-02-26T03:51:28;15.82;;;10.57;;
43998;SDS011;51319;52.162;5.302;2024-02-26T03:53:58;13.48;;;9.98;;
43998;SDS011;51319;52.162;5.302;2024-02-26T03:56:25;12.95;;;9.77;;
43998;SDS011;51319;52.162;5.302;2024-02-26T03:58:53;15.55;;;10.63;;
43998;SDS011;51319;52.162;5.302;2024-02-26T04:01:20;15.43;;;10.88;;
43998;SDS011;51319;52.162;5.302;2024-02-26T04:03:47;13.70;;;9.95;;
43998;SDS011;51319;52.162;5.302;2024-02-26T04:06:14;12.48;;;9.45;;
43998;SDS011;51319;52.162;5.302;2024-02-26T04:08:41;14.05;;;9.70;;
43998;SDS011;51319;52.162;5.302;2024-02-26T04:11:08;14.52;;;9.95;;
43998;SDS011;51319;52.162;5.302;2024-02-26T04:13:36;19.25;;;10.00;;
43998;SDS011;51319;52.162;5.302;2024-02-26T04:16:06;13.90;;;10.00;;
43998;SDS011;51319;52.162;5.302;2024-02-26T04:18:33;14.77;;;10.18;;
43998;SDS011;51319;52.162;5.302;2024-02-26T04:21:00;19.42;;;11.50;;
43998;SDS011;51319;52.162;5.302;2024-02-26T04:23:28;16.27;;;11.63;;
43998;SDS011;51319;52.162;5.302;2024-02-26T04:25:55;15.93;;;11.50;;
43998;SDS011;51319;52.162;5.302;2024-02-26T04:28:22;15.95;;;11.23;;
43998;SDS011;51319;52.162;5.302;2024-02-26T04:30:51;21.23;;;12.43;;
43998;SDS011;51319;52.162;5.302;2024-02-26T04:33:19;16.65;;;11.57;;
43998;SDS011;51319;52.162;5.302;2024-02-26T04:35:46;18.77;;;12.27;;
43998;SDS011;51319;52.162;5.302;2024-02-26T04:38:13;27.38;;;14.32;;
43998;SDS011;51319;52.162;5.302;2024-02-26T04:40:40;21.00;;;13.82;;
43998;SDS011;51319;52.162;5.302;2024-02-26T04:43:07;31.17;;;15.50;;
43998;SDS011;51319;52.162;5.302;2024-02-26T04:45:34;19.30;;;13.13;;
43998;SDS011;51319;52.162;5.302;2024-02-26T04:48:01;20.55;;;13.60;;
43998;SDS011;51319;52.162;5.302;2024-02-26T04:50:29;26.48;;;13.45;;
43998;SDS011;51319;52.162;5.302;2024-02-26T04:52:56;19.05;;;13.57;;
43998;SDS011;51319;52.162;5.302;2024-02-26T04:55:22;19.50;;;13.43;;
43998;SDS011;51319;52.162;5.302;2024-02-26T04:57:49;19.20;;;13.35;;
43998;SDS011;51319;52.162;5.302;2024-02-26T05:00:16;20.50;;;13.63;;
43998;SDS011;51319;52.162;5.302;2024-02-26T05:02:43;20.35;;;13.82;;
43998;SDS011;51319;52.162;5.302;2024-02-26T05:05:10;22.13;;;14.95;;
43998;SDS011;51319;52.162;5.302;2024-02-26T05:07:39;20.98;;;13.90;;
43998;SDS011;51319;52.162;5.302;2024-02-26T05:10:09;23.73;;;14.55;;
43998;SDS011;51319;52.162;5.302;2024-02-26T05:12:36;20.15;;;14.15;;
43998;SDS011;51319;52.162;5.302;2024-02-26T05:15:03;19.50;;;13.23;;
43998;SDS011;51319;52.162;5.302;2024-02-26T05:17:30;19.75;;;13.13;;
43998;SDS011;51319;52.162;5.302;2024-02-26T05:19:57;18.58;;;12.15;;
43998;SDS011;51319;52.162;5.302;2024-02-26T05:22:24;24.80;;;13.27;;
43998;SDS011;51319;52.162;5.302;2024-02-26T05:24:51;20.60;;;13.23;;
43998;SDS011;51319;52.162;5.302;2024-02-26T05:27:18;20.30;;;13.50;;
43998;SDS011;51319;52.162;5.302;2024-02-26T05:29:45;24.40;;;15.40;;
43998;SDS011;51319;52.162;5.302;2024-02-26T05:32:12;20.70;;;14.00;;
43998;SDS011;51319;52.162;5.302;2024-02-26T05:34:39;17.92;;;13.05;;
43998;SDS011;51319;52.162;5.302;2024-02-26T05:37:07;19.70;;;13.15;;
43998;SDS011;51319;52.162;5.302;2024-02-26T05:39:34;18.35;;;13.63;;
43998;SDS011;51319;52.162;5.302;2024-02-26T05:42:02;20.92;;;13.70;;
43998;SDS011;51319;52.162;5.302;2024-02-26T05:44:29;20.52;;;13.52;;
43998;SDS011;51319;52.162;5.302;2024-02-26T05:46:56;20.13;;;12.57;;
43998;SDS011;51319;52.162;5.302;2024-02-26T05:49:23;21.27;;;14.00;;
43998;SDS011;51319;52.162;5.302;2024-02-26T05:51:51;20.13;;;14.55;;
43998;SDS011;51319;52.162;5.302;2024-02-26T05:54:18;21.00;;;13.43;;
43998;SDS011;51319;52.162;5.302;2024-02-26T05:56:45;21.17;;;13.25;;
43998;SDS011;51319;52.162;5.302;2024-02-26T05:59:12;23.25;;;14.65;;
43998;SDS011;51319;52.162;5.302;2024-02-26T06:01:39;22.77;;;14.23;;
43998;SDS011;51319;52.162;5.302;2024-02-26T06:04:06;21.83;;;15.40;;
43998;SDS011;51319;52.162;5.302;2024-02-26T06:06:33;28.25;;;16.67;;
43998;SDS011;51319;52.162;5.302;2024-02-26T06:09:00;25.63;;;15.50;;
43998;SDS011;51319;52.162;5.302;2024-02-26T06:11:27;24.02;;;16.08;;
43998;SDS011;51319;52.162;5.302;2024-02-26T06:13:54;25.90;;;15.90;;
43998;SDS011;51319;52.162;5.302;2024-02-26T06:16:21;26.83;;;16.58;;
43998;SDS011;51319;52.162;5.302;2024-02-26T06:18:48;24.08;;;16.33;;
43998;SDS011;51319;52.162;5.302;2024-02-26T06:21:16;29.63;;;18.48;;
43998;SDS011;51319;52.162;5.302;2024-02-26T06:23:43;28.20;;;16.65;;
43998;SDS011;51319;52.162;5.302;2024-02-26T06:26:10;24.48;;;16.48;;
43998;SDS011;51319;52.162;5.302;2024-02-26T06:28:37;31.20;;;18.63;;
43998;SDS011;51319;52.162;5.302;2024-02-26T06:31:07;32.13;;;18.50;;
43998;SDS011;51319;52.162;5.302;2024-02-26T06:33:34;29.35;;;16.63;;
43998;SDS011;51319;52.162;5.302;2024-02-26T06:36:01;36.08;;;20.30;;
43998;SDS011;51319;52.162;5.302;2024-02-26T06:38:28;30.85;;;19.13;;
43998;SDS011;51319;52.162;5.302;2024-02-26T06:40:55;38.40;;;20.63;;
43998;SDS011;51319;52.162;5.302;2024-02-26T06:43:22;38.33;;;21.33;;
43998;SDS011;51319;52.162;5.302;2024-02-26T06:45:49;33.47;;;20.63;;
43998;SDS011;51319;52.162;5.302;2024-02-26T06:48:16;37.55;;;21.33;;
43998;SDS011;51319;52.162;5.302;2024-02-26T06:50:43;40.13;;;22.88;;
43998;SDS011;51319;52.162;5.302;2024-02-26T06:53:10;39.67;;;23.17;;
43998;SDS011;51319;52.162;5.302;2024-02-26T06:55:37;38.97;;;22.25;;
43998;SDS011;51319;52.162;5.302;2024-02-26T06:58:06;38.58;;;21.15;;
43998;SDS011;51319;52.162;5.302;2024-02-26T07:00:33;49.67;;;26.42;;
43998;SDS011;51319;52.162;5.302;2024-02-26T07:03:00;44.80;;;24.33;;
43998;SDS011;51319;52.162;5.302;2024-02-26T07:05:27;44.50;;;25.38;;
43998;SDS011;51319;52.162;5.302;2024-02-26T07:07:55;46.42;;;26.48;;
43998;SDS011;51319;52.162;5.302;2024-02-26T07:10:22;51.13;;;26.33;;
43998;SDS011;51319;52.162;5.302;2024-02-26T07:12:49;46.58;;;28.92;;
43998;SDS011;51319;52.162;5.302;2024-02-26T07:15:16;52.40;;;28.70;;
43998;SDS011;51319;52.162;5.302;2024-02-26T07:17:43;46.63;;;27.70;;
43998;SDS011;51319;52.162;5.302;2024-02-26T07:20:13;44.70;;;27.75;;
43998;SDS011;51319;52.162;5.302;2024-02-26T07:22:41;43.13;;;26.65;;
43998;SDS011;51319;52.162;5.302;2024-02-26T07:25:09;46.15;;;27.90;;
43998;SDS011;51319;52.162;5.302;2024-02-26T07:27:39;44.75;;;28.02;;
43998;SDS011;51319;52.162;5.302;2024-02-26T07:30:07;43.83;;;26.60;;
43998;SDS011;51319;52.162;5.302;2024-02-26T07:32:37;49.20;;;28.25;;
43998;SDS011;51319;52.162;5.302;2024-02-26T07:35:04;47.05;;;29.08;;
43998;SDS011;51319;52.162;5.302;2024-02-26T07:37:32;47.95;;;27.27;;
43998;SDS011;51319;52.162;5.302;2024-02-26T07:39:59;42.45;;;26.42;;
43998;SDS011;51319;52.162;5.302;2024-02-26T07:42:26;45.08;;;26.50;;
43998;SDS011;51319;52.162;5.302;2024-02-26T07:44:53;44.47;;;23.80;;
43998;SDS011;51319;52.162;5.302;2024-02-26T07:47:20;38.95;;;24.55;;
43998;SDS011;51319;52.162;5.302;2024-02-26T07:49:47;36.60;;;23.02;;
43998;SDS011;51319;52.162;5.302;2024-02-26T07:52:14;42.90;;;27.33;;
43998;SDS011;51319;52.162;5.302;2024-02-26T07:54:41;34.35;;;21.27;;
43998;SDS011;51319;52.162;5.302;2024-02-26T07:57:08;31.02;;;20.30;;
43998;SDS011;51319;52.162;5.302;2024-02-26T07:59:35;30.67;;;18.90;;
43998;SDS011;51319;52.162;5.302;2024-02-26T08:02:02;22.25;;;14.75;;
43998;SDS011;51319;52.162;5.302;2024-02-26T08:04:29;23.73;;;16.88;;
43998;SDS011;51319;52.162;5.302;2024-02-26T08:06:57;25.98;;;17.27;;
43998;SDS011;51319;52.162;5.302;2024-02-26T08:09:24;22.02;;;15.20;;
43998;SDS011;51319;52.162;5.302;2024-02-26T08:11:51;24.88;;;15.73;;
43998;SDS011;51319;52.162;5.302;2024-02-26T08:14:18;21.77;;;15.23;;
43998;SDS011;51319;52.162;5.302;2024-02-26T08:16:45;27.15;;;15.70;;
43998;SDS011;51319;52.162;5.302;2024-02-26T08:19:12;23.75;;;15.05;;
43998;SDS011;51319;52.162;5.302;2024-02-26T08:21:41;20.10;;;13.73;;
43998;SDS011;51319;52.162;5.302;2024-02-26T08:24:08;17.73;;;11.88;;
43998;SDS011;51319;52.162;5.302;2024-02-26T08:26:36;17.75;;;11.75;;
43998;SDS011;51319;52.162;5.302;2024-02-26T08:29:03;18.98;;;13.40;;
43998;SDS011;51319;52.162;5.302;2024-02-26T08:31:30;18.77;;;13.45;;
43998;SDS011;51319;52.162;5.302;2024-02-26T08:33:57;18.45;;;12.45;;
43998;SDS011;51319;52.162;5.302;2024-02-26T08:36:26;16.60;;;11.80;;
43998;SDS011;51319;52.162;5.302;2024-02-26T08:38:52;18.10;;;11.60;;
43998;SDS011;51319;52.162;5.302;2024-02-26T08:41:19;18.48;;;12.73;;
43998;SDS011;51319;52.162;5.302;2024-02-26T08:43:46;17.30;;;12.32;;
43998;SDS011;51319;52.162;5.302;2024-02-26T08:46:16;22.17;;;12.15;;
43998;SDS011;51319;52.162;5.302;2024-02-26T08:48:43;23.88;;;12.50;;
43998;SDS011;51319;52.162;5.302;2024-02-26T08:51:10;18.10;;;11.82;;
43998;SDS011;51319;52.162;5.302;2024-02-26T08:53:37;16.15;;;10.20;;
43998;SDS011;51319;52.162;5.302;2024-02-26T08:56:09;16.20;;;10.40;;
43998;SDS011;51319;52.162;5.302;2024-02-26T08:58:43;17.98;;;11.30;;
43998;SDS011;51319;52.162;5.302;2024-02-26T09:01:10;16.63;;;10.55;;
43998;SDS011;51319;52.162;5.302;2024-02-26T09:03:37;15.75;;;10.00;;
43998;SDS011;51319;52.162;5.302;2024-02-26T09:06:04;19.70;;;11.73;;
43998;SDS011;51319;52.162;5.302;2024-02-26T09:08:33;13.32;;;9.10;;
43998;SDS011;51319;52.162;5.302;2024-02-26T09:11:02;12.70;;;8.90;;
43998;SDS011;51319;52.162;5.302;2024-02-26T09:13:30;12.38;;;9.23;;
43998;SDS011;51319;52.162;5.302;2024-02-26T09:15:57;12.93;;;8.00;;
43998;SDS011;51319;52.162;5.302;2024-02-26T09:18:25;13.68;;;9.25;;
43998;SDS011;51319;52.162;5.302;2024-02-26T09:20:53;15.88;;;9.57;;
43998;SDS011;51319;52.162;5.302;2024-02-26T09:23:20;16.48;;;10.45;;
43998;SDS011;51319;52.162;5.302;2024-02-26T09:25:47;13.32;;;9.02;;
43998;SDS011;51319;52.162;5.302;2024-02-26T09:28:14;11.88;;;8.45;;
43998;SDS011;51319;52.162;5.302;2024-02-26T09:30:43;14.27;;;8.15;;
43998;SDS011;51319;52.162;5.302;2024-02-26T09:33:11;11.00;;;8.18;;
43998;SDS011;51319;52.162;5.302;2024-02-26T09:35:40;11.90;;;8.23;;
43998;SDS011;51319;52.162;5.302;2024-02-26T09:38:07;15.77;;;8.40;;
43998;SDS011;51319;52.162;5.302;2024-02-26T09:40:35;11.10;;;7.85;;
43998;SDS011;51319;52.162;5.302;2024-02-26T09:43:04;13.40;;;7.85;;
43998;SDS011;51319;52.162;5.302;2024-02-26T09:45:32;10.73;;;6.78;;
43998;SDS011;51319;52.162;5.302;2024-02-26T09:48:01;11.05;;;6.75;;
43998;SDS011;51319;52.162;5.302;2024-02-26T09:50:31;10.52;;;7.30;;
43998;SDS011;51319;52.162;5.302;2024-02-26T09:52:58;16.42;;;8.15;;
43998;SDS011;51319;52.162;5.302;2024-02-26T09:55:29;9.85;;;8.00;;
43998;SDS011;51319;52.162;5.302;2024-02-26T09:57:56;9.40;;;7.60;;
43998;SDS011;51319;52.162;5.302;2024-02-26T10:00:24;12.85;;;8.10;;
43998;SDS011;51319;52.162;5.302;2024-02-26T10:02:59;13.45;;;7.15;;
43998;SDS011;51319;52.162;5.302;2024-02-26T10:05:31;13.25;;;7.97;;
43998;SDS011;51319;52.162;5.302;2024-02-26T10:08:00;9.75;;;7.50;;
43998;SDS011;51319;52.162;5.302;2024-02-26T10:10:28;10.68;;;7.65;;
43998;SDS011;51319;52.162;5.302;2024-02-26T10:12:56;11.23;;;7.07;;
43998;SDS011;51319;52.162;5.302;2024-02-26T10:15:23;11.43;;;7.55;;
43998;SDS011;51319;52.162;5.302;2024-02-26T10:17:50;8.98;;;7.57;;
43998;SDS011;51319;52.162;5.302;2024-02-26T10:20:17;10.25;;;6.88;;
43998;SDS011;51319;52.162;5.302;2024-02-26T10:22:48;12.23;;;8.18;;
43998;SDS011;51319;52.162;5.302;2024-02-26T10:25:15;9.60;;;6.90;;
43998;SDS011;51319;52.162;5.302;2024-02-26T10:27:42;10.70;;;7.63;;
43998;SDS011;51319;52.162;5.302;2024-02-26T10:30:16;11.35;;;8.15;;
43998;SDS011;51319;52.162;5.302;2024-02-26T10:32:51;10.15;;;7.47;;
43998;SDS011;51319;52.162;5.302;2024-02-26T10:35:18;10.55;;;7.28;;
43998;SDS011;51319;52.162;5.302;2024-02-26T10:37:49;9.50;;;6.83;;
43998;SDS011;51319;52.162;5.302;2024-02-26T10:40:16;10.02;;;6.68;;
43998;SDS011;51319;52.162;5.302;2024-02-26T10:42:44;11.00;;;7.40;;
43998;SDS011;51319;52.162;5.302;2024-02-26T10:45:13;12.98;;;8.20;;
43998;SDS011;51319;52.162;5.302;2024-02-26T10:47:41;11.32;;;6.85;;
43998;SDS011;51319;52.162;5.302;2024-02-26T10:50:09;13.15;;;7.78;;
43998;SDS011;51319;52.162;5.302;2024-02-26T10:52:36;13.50;;;8.27;;
43998;SDS011;51319;52.162;5.302;2024-02-26T10:55:04;12.70;;;6.75;;
43998;SDS011;51319;52.162;5.302;2024-02-26T10:57:38;13.35;;;6.72;;
43998;SDS011;51319;52.162;5.302;2024-02-26T11:02:37;10.73;;;7.53;;
43998;SDS011;51319;52.162;5.302;2024-02-26T11:05:05;11.95;;;7.72;;
43998;SDS011;51319;52.162;5.302;2024-02-26T11:07:35;9.80;;;6.82;;
43998;SDS011;51319;52.162;5.302;2024-02-26T11:10:04;10.77;;;7.53;;
43998;SDS011;51319;52.162;5.302;2024-02-26T11:12:32;8.73;;;6.55;;
43998;SDS011;51319;52.162;5.302;2024-02-26T11:15:04;9.40;;;6.75;;
43998;SDS011;51319;52.162;5.302;2024-02-26T11:17:32;12.73;;;9.10;;
43998;SDS011;51319;52.162;5.302;2024-02-26T11:20:00;14.98;;;8.25;;
43998;SDS011;51319;52.162;5.302;2024-02-26T11:22:30;12.80;;;8.90;;
43998;SDS011;51319;52.162;5.302;2024-02-26T11:24:58;10.13;;;7.68;;
43998;SDS011;51319;52.162;5.302;2024-02-26T11:27:28;10.48;;;8.05;;
43998;SDS011;51319;52.162;5.302;2024-02-26T11:29:59;9.38;;;7.60;;
43998;SDS011;51319;52.162;5.302;2024-02-26T11:32:28;10.48;;;7.70;;
43998;SDS011;51319;52.162;5.302;2024-02-26T11:35:00;9.45;;;7.07;;
43998;SDS011;51319;52.162;5.302;2024-02-26T11:37:27;11.07;;;7.23;;
43998;SDS011;51319;52.162;5.302;2024-02-26T11:39:54;10.35;;;7.40;;
43998;SDS011;51319;52.162;5.302;2024-02-26T11:42:25;10.55;;;8.13;;
43998;SDS011;51319;52.162;5.302;2024-02-26T11:44:52;12.15;;;8.02;;
43998;SDS011;51319;52.162;5.302;2024-02-26T11:47:23;12.63;;;8.15;;
43998;SDS011;51319;52.162;5.302;2024-02-26T11:49:51;10.20;;;7.65;;
43998;SDS011;51319;52.162;5.302;2024-02-26T11:52:18;10.68;;;7.05;;
43998;SDS011;51319;52.162;5.302;2024-02-26T11:54:49;10.10;;;7.07;;
43998;SDS011;51319;52.162;5.302;2024-02-26T12:05:44;10.98;;;6.97;;
43998;SDS011;51319;52.162;5.302;2024-02-26T12:08:11;8.90;;;6.97;;
43998;SDS011;51319;52.162;5.302;2024-02-26T12:10:39;8.68;;;6.93;;
43998;SDS011;51319;52.162;5.302;2024-02-26T12:13:16;9.43;;;6.85;;
43998;SDS011;51319;52.162;5.302;2024-02-26T12:18:23;8.85;;;6.78;;
43998;SDS011;51319;52.162;5.302;2024-02-26T12:21:01;11.07;;;8.15;;
43998;SDS011;51319;52.162;5.302;2024-02-26T12:23:29;9.90;;;6.72;;
43998;SDS011;51319;52.162;5.302;2024-02-26T12:25:59;10.75;;;7.28;;
43998;SDS011;51319;52.162;5.302;2024-02-26T12:28:30;9.80;;;7.55;;
43998;SDS011;51319;52.162;5.302;2024-02-26T12:30:57;8.68;;;7.05;;
43998;SDS011;51319;52.162;5.302;2024-02-26T12:33:26;7.57;;;6.63;;
43998;SDS011;51319;52.162;5.302;2024-02-26T12:35:55;8.02;;;6.35;;
43998;SDS011;51319;52.162;5.302;2024-02-26T12:38:22;7.13;;;6.25;;
43998;SDS011;51319;52.162;5.302;2024-02-26T12:40:49;7.55;;;6.30;;
43998;SDS011;51319;52.162;5.302;2024-02-26T12:43:16;8.32;;;6.32;;
43998;SDS011;51319;52.162;5.302;2024-02-26T12:45:43;9.70;;;6.63;;
43998;SDS011;51319;52.162;5.302;2024-02-26T12:48:14;8.27;;;6.97;;
43998;SDS011;51319;52.162;5.302;2024-02-26T12:50:45;14.45;;;10.23;;
43998;SDS011;51319;52.162;5.302;2024-02-26T12:53:14;10.30;;;6.85;;
43998;SDS011;51319;52.162;5.302;2024-02-26T12:55:41;9.02;;;6.82;;
43998;SDS011;51319;52.162;5.302;2024-02-26T12:58:09;11.18;;;7.88;;
43998;SDS011;51319;52.162;5.302;2024-02-26T13:00:37;7.57;;;6.22;;
43998;SDS011;51319;52.162;5.302;2024-02-26T13:03:05;8.68;;;7.30;;
43998;SDS011;51319;52.162;5.302;2024-02-26T13:05:32;12.85;;;8.70;;
43998;SDS011;51319;52.162;5.302;2024-02-26T13:08:00;8.75;;;6.22;;
43998;SDS011;51319;52.162;5.302;2024-02-26T13:10:31;8.40;;;6.55;;
43998;SDS011;51319;52.162;5.302;2024-02-26T13:12:58;10.57;;;7.00;;
43998;SDS011;51319;52.162;5.302;2024-02-26T13:15:28;8.82;;;7.07;;
43998;SDS011;51319;52.162;5.302;2024-02-26T13:17:55;8.05;;;6.18;;
43998;SDS011;51319;52.162;5.302;2024-02-26T13:20:26;8.38;;;7.13;;
43998;SDS011;51319;52.162;5.302;2024-02-26T13:25:33;9.52;;;6.20;;
43998;SDS011;51319;52.162;5.302;2024-02-26T13:28:18;8.45;;;6.28;;
43998;SDS011;51319;52.162;5.302;2024-02-26T13:30:55;7.20;;;6.43;;
43998;SDS011;51319;52.162;5.302;2024-02-26T13:33:24;7.28;;;6.00;;
43998;SDS011;51319;52.162;5.302;2024-02-26T13:35:52;8.20;;;5.53;;
43998;SDS011;51319;52.162;5.302;2024-02-26T13:38:19;7.50;;;6.18;;
43998;SDS011;51319;52.162;5.302;2024-02-26T13:40:46;7.75;;;5.57;;
43998;SDS011;51319;52.162;5.302;2024-02-26T13:43:14;12.82;;;5.80;;
43998;SDS011;51319;52.162;5.302;2024-02-26T13:45:41;8.13;;;5.55;;
43998;SDS011;51319;52.162;5.302;2024-02-26T13:48:09;8.88;;;5.50;;
43998;SDS011;51319;52.162;5.302;2024-02-26T13:50:39;7.15;;;5.05;;
43998;SDS011;51319;52.162;5.302;2024-02-26T13:53:09;7.30;;;5.78;;
43998;SDS011;51319;52.162;5.302;2024-02-26T13:55:37;8.07;;;4.97;;
43998;SDS011;51319;52.162;5.302;2024-02-26T13:58:04;7.07;;;5.60;;
43998;SDS011;51319;52.162;5.302;2024-02-26T14:00:31;9.25;;;5.70;;
43998;SDS011;51319;52.162;5.302;2024-02-26T14:03:07;6.32;;;4.95;;
43998;SDS011;51319;52.162;5.302;2024-02-26T14:05:34;10.02;;;5.32;;
43998;SDS011;51319;52.162;5.302;2024-02-26T14:10:54;10.27;;;5.93;;
43998;SDS011;51319;52.162;5.302;2024-02-26T14:13:21;8.77;;;5.97;;
43998;SDS011;51319;52.162;5.302;2024-02-26T14:15:48;7.20;;;5.13;;
43998;SDS011;51319;52.162;5.302;2024-02-26T14:18:16;8.15;;;6.22;;
43998;SDS011;51319;52.162;5.302;2024-02-26T14:20:43;7.65;;;5.10;;
43998;SDS011;51319;52.162;5.302;2024-02-26T14:23:10;6.95;;;5.43;;
43998;SDS011;51319;52.162;5.302;2024-02-26T14:25:37;7.13;;;5.13;;
43998;SDS011;51319;52.162;5.302;2024-02-26T14:28:04;9.05;;;5.93;;
43998;SDS011;51319;52.162;5.302;2024-02-26T14:30:32;7.55;;;4.65;;
43998;SDS011;51319;52.162;5.302;2024-02-26T14:32:59;6.80;;;5.07;;
43998;SDS011;51319;52.162;5.302;2024-02-26T14:35:27;8.35;;;4.97;;
43998;SDS011;51319;52.162;5.302;2024-02-26T14:37:54;5.10;;;4.35;;
43998;SDS011;51319;52.162;5.302;2024-02-26T14:40:21;5.68;;;4.57;;
43998;SDS011;51319;52.162;5.302;2024-02-26T14:42:48;8.45;;;5.35;;
43998;SDS011;51319;52.162;5.302;2024-02-26T14:45:15;8.23;;;5.38;;
43998;SDS011;51319;52.162;5.302;2024-02-26T14:47:43;9.88;;;5.35;;
43998;SDS011;51319;52.162;5.302;2024-02-26T14:50:10;9.48;;;4.60;;
43998;SDS011;51319;52.162;5.302;2024-02-26T14:52:37;7.35;;;5.07;;
43998;SDS011;51319;52.162;5.302;2024-02-26T14:55:04;8.52;;;5.13;;